createdAt,value
2017-02-02T00:00:13.398Z,0
2017-02-02T00:00:46.129Z,0
2017-02-02T00:01:18.865Z,0
2017-02-02T00:01:51.594Z,0
2017-02-02T00:02:24.321Z,0
2017-02-02T00:02:57.051Z,0
2017-02-02T00:03:29.767Z,0
2017-02-02T00:04:02.485Z,0
2017-02-02T00:04:35.205Z,0
2017-02-02T00:05:07.913Z,0
2017-02-02T00:05:40.633Z,0
2017-02-02T00:06:13.361Z,0
2017-02-02T00:06:46.084Z,0
2017-02-02T00:07:18.823Z,0
2017-02-02T00:07:51.556Z,0
2017-02-02T00:08:24.283Z,0
2017-02-02T00:08:57.017Z,0
2017-02-02T00:09:29.757Z,0
2017-02-02T00:10:02.488Z,0
2017-02-02T00:10:35.213Z,0
2017-02-02T00:11:07.946Z,0
2017-02-02T00:11:40.683Z,0
2017-02-02T00:12:13.417Z,0
2017-02-02T00:12:46.152Z,0
2017-02-02T00:13:18.885Z,0
2017-02-02T00:13:51.634Z,0
2017-02-02T00:14:24.356Z,0
2017-02-02T00:14:57.069Z,0
2017-02-02T00:15:29.800Z,0
2017-02-02T00:16:02.537Z,0
2017-02-02T00:16:35.276Z,0
2017-02-02T00:17:08.024Z,0
2017-02-02T00:17:40.745Z,0
2017-02-02T00:18:13.474Z,0
2017-02-02T00:18:46.205Z,0
2017-02-02T00:19:18.924Z,0
2017-02-02T00:19:51.674Z,0
2017-02-02T00:20:24.433Z,0
2017-02-02T00:20:57.164Z,0
2017-02-02T00:21:29.890Z,0
2017-02-02T00:22:02.650Z,0
2017-02-02T00:22:35.387Z,0
2017-02-02T00:23:08.124Z,0
2017-02-02T00:23:40.857Z,0
2017-02-02T00:24:13.597Z,0
2017-02-02T00:24:46.327Z,0
2017-02-02T00:25:19.045Z,0
2017-02-02T00:25:51.793Z,0
2017-02-02T00:26:24.526Z,0
2017-02-02T00:26:57.250Z,0
2017-02-02T00:27:29.996Z,0
2017-02-02T00:28:02.732Z,0
2017-02-02T00:28:35.467Z,0
2017-02-02T00:29:08.198Z,0
2017-02-02T00:29:40.921Z,0
2017-02-02T00:30:13.644Z,0
2017-02-02T00:30:46.370Z,0
2017-02-02T00:31:19.110Z,0
2017-02-02T00:31:51.838Z,0
2017-02-02T00:32:24.549Z,0
2017-02-02T00:32:57.276Z,0
2017-02-02T00:33:30.013Z,0
2017-02-02T00:34:02.739Z,0
2017-02-02T00:34:35.492Z,0
2017-02-02T00:35:08.215Z,0
2017-02-02T00:35:40.943Z,0
2017-02-02T00:36:13.680Z,0
2017-02-02T00:36:46.418Z,0
2017-02-02T00:37:19.143Z,0
2017-02-02T00:37:51.882Z,0
2017-02-02T00:38:24.612Z,0
2017-02-02T00:38:57.341Z,0
2017-02-02T00:39:30.085Z,0
2017-02-02T00:40:02.830Z,0
2017-02-02T00:40:35.580Z,0
2017-02-02T00:41:08.317Z,0
2017-02-02T00:41:41.053Z,0
2017-02-02T00:42:13.806Z,0
2017-02-02T00:42:46.539Z,0
2017-02-02T00:43:19.262Z,0
2017-02-02T00:43:51.996Z,0
2017-02-02T00:44:24.720Z,0
2017-02-02T00:44:57.460Z,0
2017-02-02T00:45:30.188Z,0
2017-02-02T00:46:02.943Z,0
2017-02-02T00:46:35.661Z,0
2017-02-02T00:47:08.381Z,0
2017-02-02T00:47:41.101Z,0
2017-02-02T00:48:13.844Z,0
2017-02-02T00:48:46.572Z,0
2017-02-02T00:49:19.294Z,0
2017-02-02T00:49:52.030Z,0
2017-02-02T00:50:24.764Z,0
2017-02-02T00:50:57.499Z,0
2017-02-02T00:51:30.242Z,0
2017-02-02T00:52:02.961Z,0
2017-02-02T00:52:35.694Z,0
2017-02-02T00:53:08.420Z,0
2017-02-02T00:53:41.152Z,0
2017-02-02T00:54:13.878Z,0
2017-02-02T00:54:46.613Z,0
2017-02-02T00:55:19.351Z,0
2017-02-02T00:55:52.082Z,0
2017-02-02T00:56:24.817Z,0
2017-02-02T00:56:57.548Z,0
2017-02-02T00:57:30.265Z,0
2017-02-02T00:58:02.998Z,0
2017-02-02T00:58:35.733Z,0
2017-02-02T00:59:08.455Z,0
2017-02-02T00:59:41.193Z,0
2017-02-02T01:00:14.369Z,0
2017-02-02T01:00:47.100Z,0
2017-02-02T01:01:19.838Z,0
2017-02-02T01:01:52.581Z,0
2017-02-02T01:02:25.306Z,0
2017-02-02T01:02:58.049Z,0
2017-02-02T01:03:30.776Z,0
2017-02-02T01:04:03.519Z,0
2017-02-02T01:04:36.248Z,0
2017-02-02T01:05:08.986Z,0
2017-02-02T01:05:41.719Z,0
2017-02-02T01:06:14.448Z,0
2017-02-02T01:06:48.118Z,0
2017-02-02T01:07:20.870Z,0
2017-02-02T01:07:53.601Z,0
2017-02-02T01:08:26.329Z,0
2017-02-02T01:08:59.051Z,0
2017-02-02T01:09:31.783Z,0
2017-02-02T01:10:04.529Z,0
2017-02-02T01:10:37.254Z,0
2017-02-02T01:11:09.970Z,0
2017-02-02T01:11:42.707Z,0
2017-02-02T01:12:15.437Z,0
2017-02-02T01:12:48.188Z,0
2017-02-02T01:13:20.922Z,0
2017-02-02T01:13:53.653Z,0
2017-02-02T01:14:26.376Z,0
2017-02-02T01:14:59.089Z,0
2017-02-02T01:15:31.821Z,0
2017-02-02T01:16:04.565Z,0
2017-02-02T01:16:37.287Z,0
2017-02-02T01:17:10.008Z,0
2017-02-02T01:17:42.731Z,0
2017-02-02T01:18:15.469Z,0
2017-02-02T01:18:48.195Z,0
2017-02-02T01:19:20.928Z,0
2017-02-02T01:19:53.672Z,0
2017-02-02T01:20:26.401Z,0
2017-02-02T01:20:59.132Z,0
2017-02-02T01:21:31.863Z,0
2017-02-02T01:22:04.604Z,0
2017-02-02T01:22:37.333Z,0
2017-02-02T01:23:10.049Z,0
2017-02-02T01:23:42.774Z,0
2017-02-02T01:24:15.511Z,0
2017-02-02T01:24:48.252Z,0
2017-02-02T01:25:20.969Z,0
2017-02-02T01:25:53.691Z,0
2017-02-02T01:26:26.415Z,0
2017-02-02T01:26:59.149Z,0
2017-02-02T01:27:31.876Z,0
2017-02-02T01:28:04.594Z,0
2017-02-02T01:28:37.316Z,0
2017-02-02T01:29:10.044Z,0
2017-02-02T01:29:42.778Z,0
2017-02-02T01:30:15.508Z,0
2017-02-02T01:30:48.237Z,0
2017-02-02T01:31:20.985Z,0
2017-02-02T01:31:53.721Z,0
2017-02-02T01:32:26.446Z,0
2017-02-02T01:32:59.168Z,0
2017-02-02T01:33:31.896Z,0
2017-02-02T01:34:04.626Z,0
2017-02-02T01:34:37.354Z,0
2017-02-02T01:35:10.091Z,0
2017-02-02T01:35:42.819Z,0
2017-02-02T01:36:16.491Z,0
2017-02-02T01:36:49.232Z,0
2017-02-02T01:37:21.969Z,0
2017-02-02T01:37:54.696Z,0
2017-02-02T01:38:27.426Z,0
2017-02-02T01:39:00.172Z,0
2017-02-02T01:39:32.897Z,0
2017-02-02T01:40:05.635Z,0
2017-02-02T01:40:38.352Z,0
2017-02-02T01:41:11.069Z,0
2017-02-02T01:41:43.801Z,0
2017-02-02T01:42:16.531Z,0
2017-02-02T01:42:49.256Z,0
2017-02-02T01:43:21.987Z,0
2017-02-02T01:43:54.754Z,0
2017-02-02T01:44:27.480Z,0
2017-02-02T01:45:00.218Z,0
2017-02-02T01:45:32.939Z,0
2017-02-02T01:46:05.675Z,0
2017-02-02T01:46:38.429Z,0
2017-02-02T01:47:11.158Z,0
2017-02-02T01:47:43.885Z,0
2017-02-02T01:48:16.615Z,0
2017-02-02T01:48:49.367Z,0
2017-02-02T01:49:22.113Z,0
2017-02-02T01:49:54.860Z,0
2017-02-02T01:50:27.625Z,0
2017-02-02T01:51:00.362Z,0
2017-02-02T01:51:33.096Z,0
2017-02-02T01:52:05.823Z,0
2017-02-02T01:52:38.552Z,0
2017-02-02T01:53:11.273Z,0
2017-02-02T01:53:44.016Z,0
2017-02-02T01:54:16.744Z,0
2017-02-02T01:54:49.467Z,0
2017-02-02T01:55:22.192Z,0
2017-02-02T01:55:54.928Z,0
2017-02-02T01:56:27.671Z,0
2017-02-02T01:57:00.400Z,0
2017-02-02T01:57:33.133Z,0
2017-02-02T01:58:05.870Z,0
2017-02-02T01:58:38.601Z,0
2017-02-02T01:59:11.346Z,0
2017-02-02T01:59:44.064Z,0
2017-02-02T02:00:16.807Z,0
2017-02-02T02:00:49.534Z,0
2017-02-02T02:01:22.274Z,0
2017-02-02T02:01:55.007Z,0
2017-02-02T02:02:27.738Z,0
2017-02-02T02:03:00.486Z,0
2017-02-02T02:03:33.209Z,0
2017-02-02T02:04:05.954Z,0
2017-02-02T02:04:38.681Z,0
2017-02-02T02:05:11.412Z,0
2017-02-02T02:05:44.151Z,0
2017-02-02T02:06:16.870Z,0
2017-02-02T02:06:49.615Z,0
2017-02-02T02:07:22.345Z,0
2017-02-02T02:07:55.094Z,0
2017-02-02T02:08:27.820Z,0
2017-02-02T02:09:00.558Z,0
2017-02-02T02:09:33.288Z,0
2017-02-02T02:10:06.022Z,0
2017-02-02T02:10:38.752Z,0
2017-02-02T02:11:11.486Z,0
2017-02-02T02:11:44.231Z,0
2017-02-02T02:12:16.954Z,0
2017-02-02T02:12:49.690Z,0
2017-02-02T02:13:22.431Z,0
2017-02-02T02:13:55.164Z,0
2017-02-02T02:14:27.915Z,0
2017-02-02T02:15:00.642Z,0
2017-02-02T02:15:33.376Z,0
2017-02-02T02:16:06.112Z,0
2017-02-02T02:16:38.840Z,0
2017-02-02T02:17:11.575Z,0
2017-02-02T02:17:44.305Z,0
2017-02-02T02:18:17.043Z,0
2017-02-02T02:18:49.777Z,0
2017-02-02T02:19:22.505Z,0
2017-02-02T02:19:55.229Z,0
2017-02-02T02:20:27.944Z,0
2017-02-02T02:21:00.681Z,0
2017-02-02T02:21:33.407Z,0
2017-02-02T02:22:06.126Z,0
2017-02-02T02:22:38.899Z,0
2017-02-02T02:23:11.628Z,0
2017-02-02T02:23:44.355Z,0
2017-02-02T02:24:17.074Z,0
2017-02-02T02:24:49.814Z,0
2017-02-02T02:25:22.545Z,0
2017-02-02T02:25:55.279Z,0
2017-02-02T02:26:28.010Z,0
2017-02-02T02:27:00.738Z,0
2017-02-02T02:27:33.469Z,0
2017-02-02T02:28:06.193Z,0
2017-02-02T02:28:38.927Z,0
2017-02-02T02:29:11.661Z,0
2017-02-02T02:29:44.387Z,0
2017-02-02T02:30:17.112Z,0
2017-02-02T02:30:49.842Z,0
2017-02-02T02:31:22.566Z,0
2017-02-02T02:31:55.299Z,0
2017-02-02T02:32:28.036Z,0
2017-02-02T02:33:00.772Z,0
2017-02-02T02:33:33.504Z,0
2017-02-02T02:34:06.234Z,0
2017-02-02T02:34:38.977Z,0
2017-02-02T02:35:11.710Z,0
2017-02-02T02:35:44.451Z,0
2017-02-02T02:36:17.186Z,0
2017-02-02T02:36:49.924Z,0
2017-02-02T02:37:22.651Z,0
2017-02-02T02:37:55.379Z,0
2017-02-02T02:38:28.107Z,0
2017-02-02T02:39:00.833Z,0
2017-02-02T02:39:33.566Z,0
2017-02-02T02:40:06.305Z,0
2017-02-02T02:40:39.028Z,0
2017-02-02T02:41:11.759Z,0
2017-02-02T02:41:44.512Z,0
2017-02-02T02:42:17.240Z,0
2017-02-02T02:42:49.979Z,0
2017-02-02T02:43:22.715Z,0
2017-02-02T02:43:55.442Z,0
2017-02-02T02:44:28.185Z,0
2017-02-02T02:45:00.927Z,0
2017-02-02T02:45:33.663Z,0
2017-02-02T02:46:06.384Z,0
2017-02-02T02:46:39.096Z,0
2017-02-02T02:47:11.817Z,0
2017-02-02T02:47:44.553Z,0
2017-02-02T02:48:17.275Z,0
2017-02-02T02:48:50.004Z,0
2017-02-02T02:49:22.731Z,0
2017-02-02T02:49:55.457Z,0
2017-02-02T02:50:28.181Z,0
2017-02-02T02:51:00.924Z,0
2017-02-02T02:51:33.657Z,0
2017-02-02T02:52:06.373Z,0
2017-02-02T02:52:39.103Z,0
2017-02-02T02:53:11.846Z,0
2017-02-02T02:53:44.575Z,0
2017-02-02T02:54:17.311Z,0
2017-02-02T02:54:50.026Z,0
2017-02-02T02:55:22.752Z,0
2017-02-02T02:55:55.476Z,0
2017-02-02T02:56:28.210Z,0
2017-02-02T02:57:01.667Z,0
2017-02-02T02:57:34.395Z,0
2017-02-02T02:58:07.111Z,0
2017-02-02T02:58:39.844Z,0
2017-02-02T02:59:12.571Z,0
2017-02-02T02:59:45.300Z,0
2017-02-02T03:00:18.045Z,0
2017-02-02T03:00:50.775Z,0
2017-02-02T03:01:23.503Z,0
2017-02-02T03:01:56.230Z,0
2017-02-02T03:02:28.954Z,0
2017-02-02T03:03:01.685Z,0
2017-02-02T03:03:34.425Z,0
2017-02-02T03:04:07.163Z,0
2017-02-02T03:04:39.891Z,0
2017-02-02T03:05:12.612Z,0
2017-02-02T03:05:45.343Z,0
2017-02-02T03:06:18.119Z,0
2017-02-02T03:06:50.854Z,0
2017-02-02T03:07:23.585Z,0
2017-02-02T03:07:56.311Z,0
2017-02-02T03:08:29.035Z,0
2017-02-02T03:09:01.779Z,0
2017-02-02T03:09:34.527Z,0
2017-02-02T03:10:07.254Z,0
2017-02-02T03:10:39.998Z,0
2017-02-02T03:11:12.735Z,0
2017-02-02T03:11:45.465Z,0
2017-02-02T03:12:18.197Z,0
2017-02-02T03:12:50.932Z,0
2017-02-02T03:13:23.653Z,0
2017-02-02T03:13:56.399Z,0
2017-02-02T03:14:29.151Z,0
2017-02-02T03:15:01.888Z,0
2017-02-02T03:15:34.623Z,0
2017-02-02T03:16:07.347Z,0
2017-02-02T03:16:40.073Z,0
2017-02-02T03:17:12.801Z,0
2017-02-02T03:17:45.516Z,0
2017-02-02T03:18:18.245Z,0
2017-02-02T03:18:50.980Z,0
2017-02-02T03:19:23.697Z,0
2017-02-02T03:19:56.419Z,0
2017-02-02T03:20:29.143Z,0
2017-02-02T03:21:01.872Z,0
2017-02-02T03:21:34.602Z,0
2017-02-02T03:22:07.325Z,0
2017-02-02T03:22:40.049Z,0
2017-02-02T03:23:12.775Z,0
2017-02-02T03:23:45.513Z,0
2017-02-02T03:24:18.233Z,0
2017-02-02T03:24:50.972Z,0
2017-02-02T03:25:23.725Z,0
2017-02-02T03:25:56.471Z,0
2017-02-02T03:26:29.197Z,0
2017-02-02T03:27:01.941Z,0
2017-02-02T03:27:34.680Z,0
2017-02-02T03:28:07.422Z,0
2017-02-02T03:28:40.151Z,0
2017-02-02T03:29:12.887Z,0
2017-02-02T03:29:45.617Z,0
2017-02-02T03:30:18.338Z,0
2017-02-02T03:30:51.059Z,0
2017-02-02T03:31:23.781Z,0
2017-02-02T03:31:56.534Z,0
2017-02-02T03:32:29.311Z,0
2017-02-02T03:33:02.086Z,0
2017-02-02T03:33:34.821Z,0
2017-02-02T03:34:07.544Z,0
2017-02-02T03:34:40.292Z,0
2017-02-02T03:35:13.013Z,0
2017-02-02T03:35:45.737Z,0
2017-02-02T03:36:18.492Z,0
2017-02-02T03:36:51.235Z,0
2017-02-02T03:37:23.959Z,0
2017-02-02T03:37:56.696Z,0
2017-02-02T03:38:29.426Z,0
2017-02-02T03:39:02.158Z,0
2017-02-02T03:39:34.889Z,0
2017-02-02T03:40:07.621Z,0
2017-02-02T03:40:40.352Z,0
2017-02-02T03:41:13.092Z,0
2017-02-02T03:41:45.816Z,0
2017-02-02T03:42:18.546Z,0
2017-02-02T03:42:51.268Z,0
2017-02-02T03:43:23.987Z,0
2017-02-02T03:43:56.704Z,0
2017-02-02T03:44:29.442Z,0
2017-02-02T03:45:02.159Z,0
2017-02-02T03:45:34.886Z,0
2017-02-02T03:46:07.613Z,0
2017-02-02T03:46:40.336Z,0
2017-02-02T03:47:13.062Z,0
2017-02-02T03:47:45.801Z,0
2017-02-02T03:48:18.539Z,0
2017-02-02T03:48:51.259Z,0
2017-02-02T03:49:23.989Z,0
2017-02-02T03:49:56.779Z,0
2017-02-02T03:50:29.524Z,0
2017-02-02T03:51:02.250Z,0
2017-02-02T03:51:35.021Z,0
2017-02-02T03:52:07.734Z,0
2017-02-02T03:52:40.507Z,0
2017-02-02T03:53:13.230Z,0
2017-02-02T03:53:45.972Z,0
2017-02-02T03:54:18.697Z,0
2017-02-02T03:54:51.419Z,0
2017-02-02T03:55:24.149Z,0
2017-02-02T03:55:56.884Z,0
2017-02-02T03:56:29.603Z,0
2017-02-02T03:57:02.339Z,0
2017-02-02T03:57:35.066Z,0
2017-02-02T03:58:07.791Z,0
2017-02-02T03:58:40.516Z,0
2017-02-02T03:59:13.247Z,0
2017-02-02T03:59:45.965Z,0
2017-02-02T04:00:18.681Z,0
2017-02-02T04:00:51.404Z,0
2017-02-02T04:01:24.133Z,0
2017-02-02T04:01:56.877Z,0
2017-02-02T04:02:29.620Z,0
2017-02-02T04:03:02.362Z,0
2017-02-02T04:03:35.100Z,0
2017-02-02T04:04:07.833Z,0
2017-02-02T04:04:40.545Z,0
2017-02-02T04:05:13.267Z,0
2017-02-02T04:05:46.013Z,0
2017-02-02T04:06:18.746Z,0
2017-02-02T04:06:51.488Z,0
2017-02-02T04:07:24.222Z,0
2017-02-02T04:07:56.963Z,0
2017-02-02T04:08:29.702Z,0
2017-02-02T04:09:02.436Z,0
2017-02-02T04:09:35.185Z,0
2017-02-02T04:10:07.914Z,0
2017-02-02T04:10:40.654Z,0
2017-02-02T04:11:13.382Z,0
2017-02-02T04:11:46.118Z,0
2017-02-02T04:12:18.851Z,0
2017-02-02T04:12:51.572Z,0
2017-02-02T04:13:24.304Z,0
2017-02-02T04:13:57.037Z,0
2017-02-02T04:14:29.759Z,0
2017-02-02T04:15:02.493Z,0
2017-02-02T04:15:35.224Z,0
2017-02-02T04:16:07.961Z,0
2017-02-02T04:16:40.692Z,0
2017-02-02T04:17:13.417Z,0
2017-02-02T04:17:46.156Z,0
2017-02-02T04:18:18.882Z,0
2017-02-02T04:18:51.606Z,0
2017-02-02T04:19:24.335Z,0
2017-02-02T04:19:57.089Z,0
2017-02-02T04:20:29.833Z,0
2017-02-02T04:21:02.573Z,0
2017-02-02T04:21:35.296Z,0
2017-02-02T04:22:08.026Z,0
2017-02-02T04:22:40.755Z,0
2017-02-02T04:23:13.479Z,0
2017-02-02T04:23:46.212Z,0
2017-02-02T04:24:18.928Z,0
2017-02-02T04:24:51.664Z,0
2017-02-02T04:25:24.392Z,0
2017-02-02T04:25:57.129Z,0
2017-02-02T04:26:29.859Z,0
2017-02-02T04:27:02.598Z,0
2017-02-02T04:27:35.334Z,0
2017-02-02T04:28:08.067Z,0
2017-02-02T04:28:40.791Z,0
2017-02-02T04:29:13.526Z,0
2017-02-02T04:29:46.265Z,0
2017-02-02T04:30:18.993Z,0
2017-02-02T04:30:51.760Z,0
2017-02-02T04:31:24.514Z,0
2017-02-02T04:31:57.233Z,0
2017-02-02T04:32:29.972Z,0
2017-02-02T04:33:02.699Z,0
2017-02-02T04:33:35.420Z,0
2017-02-02T04:34:08.160Z,0
2017-02-02T04:34:40.887Z,0
2017-02-02T04:35:13.607Z,0
2017-02-02T04:35:46.339Z,0
2017-02-02T04:36:19.071Z,0
2017-02-02T04:36:51.809Z,0
2017-02-02T04:37:24.531Z,0
2017-02-02T04:37:57.270Z,0
2017-02-02T04:38:29.996Z,0
2017-02-02T04:39:02.709Z,0
2017-02-02T04:39:35.441Z,0
2017-02-02T04:40:08.172Z,0
2017-02-02T04:40:40.906Z,0
2017-02-02T04:41:13.647Z,0
2017-02-02T04:41:46.391Z,0
2017-02-02T04:42:19.127Z,0
2017-02-02T04:42:51.846Z,0
2017-02-02T04:43:24.590Z,0
2017-02-02T04:43:57.323Z,0
2017-02-02T04:44:30.047Z,0
2017-02-02T04:45:02.784Z,0
2017-02-02T04:45:35.513Z,0
2017-02-02T04:46:08.238Z,0
2017-02-02T04:46:40.965Z,0
2017-02-02T04:47:13.703Z,0
2017-02-02T04:47:46.430Z,0
2017-02-02T04:48:19.152Z,0
2017-02-02T04:48:51.879Z,0
2017-02-02T04:49:24.640Z,0
2017-02-02T04:49:57.366Z,0
2017-02-02T04:50:30.080Z,0
2017-02-02T04:51:02.804Z,0
2017-02-02T04:51:35.530Z,0
2017-02-02T04:52:08.251Z,0
2017-02-02T04:52:40.996Z,0
2017-02-02T04:53:13.734Z,0
2017-02-02T04:53:46.472Z,0
2017-02-02T04:54:19.202Z,0
2017-02-02T04:54:51.935Z,0
2017-02-02T04:55:24.656Z,0
2017-02-02T04:55:57.381Z,0
2017-02-02T04:56:30.111Z,0
2017-02-02T04:57:02.849Z,0
2017-02-02T04:57:35.572Z,0
2017-02-02T04:58:08.296Z,0
2017-02-02T04:58:41.038Z,0
2017-02-02T04:59:13.761Z,0
2017-02-02T04:59:46.492Z,0
2017-02-02T05:00:19.229Z,0
2017-02-02T05:00:51.963Z,0
2017-02-02T05:01:24.689Z,0
2017-02-02T05:01:57.418Z,0
2017-02-02T05:02:30.158Z,0
2017-02-02T05:03:02.879Z,0
2017-02-02T05:03:35.621Z,0
2017-02-02T05:04:08.351Z,0
2017-02-02T05:04:41.072Z,0
2017-02-02T05:05:13.796Z,0
2017-02-02T05:05:46.526Z,0
2017-02-02T05:06:19.264Z,0
2017-02-02T05:06:51.995Z,0
2017-02-02T05:07:24.741Z,0
2017-02-02T05:07:57.475Z,0
2017-02-02T05:08:30.204Z,0
2017-02-02T05:09:02.951Z,0
2017-02-02T05:09:35.699Z,0
2017-02-02T05:10:08.435Z,0
2017-02-02T05:10:41.177Z,0
2017-02-02T05:11:13.926Z,0
2017-02-02T05:11:46.655Z,0
2017-02-02T05:12:19.381Z,0
2017-02-02T05:12:52.119Z,0
2017-02-02T05:13:24.850Z,0
2017-02-02T05:13:57.581Z,0
2017-02-02T05:14:30.316Z,0
2017-02-02T05:15:03.054Z,0
2017-02-02T05:15:35.788Z,0
2017-02-02T05:16:08.533Z,0
2017-02-02T05:16:41.295Z,0
2017-02-02T05:17:14.030Z,0
2017-02-02T05:17:46.757Z,0
2017-02-02T05:18:19.496Z,0
2017-02-02T05:18:52.224Z,0
2017-02-02T05:19:24.961Z,0
2017-02-02T05:19:57.701Z,0
2017-02-02T05:20:30.434Z,0
2017-02-02T05:21:03.164Z,0
2017-02-02T05:21:35.909Z,0
2017-02-02T05:22:08.643Z,0
2017-02-02T05:22:41.388Z,0
2017-02-02T05:23:14.135Z,0
2017-02-02T05:23:46.873Z,0
2017-02-02T05:24:19.599Z,0
2017-02-02T05:24:52.323Z,0
2017-02-02T05:25:25.084Z,0
2017-02-02T05:25:57.818Z,0
2017-02-02T05:26:30.549Z,0
2017-02-02T05:27:03.281Z,0
2017-02-02T05:27:36.022Z,0
2017-02-02T05:28:08.745Z,0
2017-02-02T05:28:41.477Z,0
2017-02-02T05:29:14.195Z,0
2017-02-02T05:29:46.917Z,0
2017-02-02T05:30:19.668Z,0
2017-02-02T05:30:52.378Z,0
2017-02-02T05:31:25.125Z,0
2017-02-02T05:31:57.844Z,0
2017-02-02T05:32:30.573Z,0
2017-02-02T05:33:03.322Z,0
2017-02-02T05:33:36.058Z,0
2017-02-02T05:34:08.792Z,0
2017-02-02T05:34:41.517Z,0
2017-02-02T05:35:14.232Z,0
2017-02-02T05:35:46.963Z,0
2017-02-02T05:36:19.692Z,0
2017-02-02T05:36:52.412Z,0
2017-02-02T05:37:25.127Z,0
2017-02-02T05:37:57.856Z,0
2017-02-02T05:38:30.576Z,0
2017-02-02T05:39:03.303Z,0
2017-02-02T05:39:36.031Z,0
2017-02-02T05:40:08.752Z,0
2017-02-02T05:40:41.481Z,0
2017-02-02T05:41:14.204Z,0
2017-02-02T05:41:46.925Z,0
2017-02-02T05:42:19.660Z,0
2017-02-02T05:42:52.383Z,0
2017-02-02T05:43:25.106Z,0
2017-02-02T05:43:57.837Z,0
2017-02-02T05:44:30.558Z,0
2017-02-02T05:45:03.306Z,0
2017-02-02T05:45:36.044Z,0
2017-02-02T05:46:08.782Z,0
2017-02-02T05:46:41.524Z,0
2017-02-02T05:47:14.271Z,0
2017-02-02T05:47:47.011Z,0
2017-02-02T05:48:19.760Z,0
2017-02-02T05:48:52.491Z,0
2017-02-02T05:49:25.225Z,0
2017-02-02T05:49:58.233Z,0
2017-02-02T05:50:30.962Z,0
2017-02-02T05:51:03.696Z,0
2017-02-02T05:51:36.431Z,0
2017-02-02T05:52:09.163Z,0
2017-02-02T05:52:41.901Z,0
2017-02-02T05:53:14.623Z,0
2017-02-02T05:53:47.361Z,0
2017-02-02T05:54:20.087Z,0
2017-02-02T05:54:52.821Z,0
2017-02-02T05:55:25.556Z,0
2017-02-02T05:55:58.279Z,0
2017-02-02T05:56:31.009Z,0
2017-02-02T05:57:03.761Z,0
2017-02-02T05:57:36.494Z,0
2017-02-02T05:58:09.218Z,0
2017-02-02T05:58:41.939Z,0
2017-02-02T05:59:14.674Z,0
2017-02-02T05:59:47.413Z,0
2017-02-02T06:00:20.149Z,0
2017-02-02T06:00:52.888Z,0
2017-02-02T06:01:25.621Z,0
2017-02-02T06:01:58.345Z,0
2017-02-02T06:02:32.132Z,0
2017-02-02T06:03:04.853Z,0
2017-02-02T06:03:37.592Z,0
2017-02-02T06:04:10.309Z,0
2017-02-02T06:04:43.043Z,0
2017-02-02T06:05:15.780Z,0
2017-02-02T06:05:48.507Z,0
2017-02-02T06:06:21.240Z,0
2017-02-02T06:06:53.955Z,0
2017-02-02T06:07:26.685Z,0
2017-02-02T06:07:59.403Z,0
2017-02-02T06:08:32.122Z,0
2017-02-02T06:09:04.864Z,0
2017-02-02T06:09:37.600Z,0
2017-02-02T06:10:10.358Z,0
2017-02-02T06:10:43.107Z,0
2017-02-02T06:11:15.846Z,0
2017-02-02T06:11:48.563Z,0
2017-02-02T06:12:21.305Z,0
2017-02-02T06:12:54.038Z,0
2017-02-02T06:13:26.772Z,0
2017-02-02T06:13:59.502Z,0
2017-02-02T06:14:32.230Z,0
2017-02-02T06:15:04.967Z,0
2017-02-02T06:15:37.685Z,0
2017-02-02T06:16:12.151Z,0
2017-02-02T06:16:44.892Z,0
2017-02-02T06:17:17.646Z,0
2017-02-02T06:17:50.354Z,0
2017-02-02T06:18:23.091Z,0
2017-02-02T06:18:55.818Z,0
2017-02-02T06:19:28.540Z,0
2017-02-02T06:20:01.286Z,0
2017-02-02T06:20:34.003Z,0
2017-02-02T06:21:06.729Z,0
2017-02-02T06:21:39.466Z,0
2017-02-02T06:22:12.199Z,0
2017-02-02T06:22:45.035Z,0
2017-02-02T06:23:17.788Z,0
2017-02-02T06:23:50.560Z,0
2017-02-02T06:24:23.435Z,0
2017-02-02T06:24:56.216Z,0
2017-02-02T06:25:28.951Z,0
2017-02-02T06:26:01.690Z,0
2017-02-02T06:26:34.428Z,0
2017-02-02T06:27:07.174Z,0
2017-02-02T06:27:39.909Z,0
2017-02-02T06:28:12.641Z,0
2017-02-02T06:28:45.394Z,0
2017-02-02T06:29:19.796Z,0
2017-02-02T06:29:52.548Z,0
2017-02-02T06:30:25.274Z,0
2017-02-02T06:30:57.997Z,0
2017-02-02T06:31:30.731Z,0
2017-02-02T06:32:03.453Z,0
2017-02-02T06:32:36.186Z,0
2017-02-02T06:33:08.912Z,0
2017-02-02T06:33:41.642Z,0
2017-02-02T06:34:14.377Z,0
2017-02-02T06:34:47.117Z,0
2017-02-02T06:35:19.845Z,0
2017-02-02T06:35:52.586Z,0
2017-02-02T06:36:25.317Z,0
2017-02-02T06:36:58.140Z,0
2017-02-02T06:37:30.873Z,0
2017-02-02T06:38:03.620Z,0
2017-02-02T06:38:36.359Z,0
2017-02-02T06:39:09.090Z,0
2017-02-02T06:39:41.864Z,0
2017-02-02T06:40:14.663Z,0
2017-02-02T06:40:47.397Z,0
2017-02-02T06:41:20.120Z,0
2017-02-02T06:41:52.849Z,0
2017-02-02T06:42:25.592Z,0
2017-02-02T06:42:58.349Z,4
2017-02-02T06:43:31.080Z,4
2017-02-02T06:44:03.816Z,4
2017-02-02T06:44:36.565Z,4
2017-02-02T06:45:09.296Z,4
2017-02-02T06:45:42.020Z,4
2017-02-02T06:46:14.741Z,4
2017-02-02T06:46:47.500Z,0
2017-02-02T06:47:20.257Z,4
2017-02-02T06:47:53.028Z,4
2017-02-02T06:48:25.768Z,4
2017-02-02T06:48:58.517Z,4
2017-02-02T06:49:31.271Z,4
2017-02-02T06:50:04.035Z,4
2017-02-02T06:50:36.776Z,8
2017-02-02T06:51:09.507Z,4
2017-02-02T06:51:42.244Z,8
2017-02-02T06:52:14.987Z,12
2017-02-02T06:52:47.854Z,8
2017-02-02T06:53:20.597Z,12
2017-02-02T06:53:53.317Z,12
2017-02-02T06:54:26.052Z,16
2017-02-02T06:54:58.789Z,12
2017-02-02T06:55:40.768Z,20
2017-02-02T06:56:13.529Z,20
2017-02-02T06:56:47.169Z,20
2017-02-02T06:57:19.985Z,24
2017-02-02T06:57:52.800Z,24
2017-02-02T06:58:25.587Z,24
2017-02-02T06:58:58.596Z,28
2017-02-02T06:59:32.253Z,32
2017-02-02T07:00:05.092Z,32
2017-02-02T07:00:37.821Z,36
2017-02-02T07:01:10.770Z,36
2017-02-02T07:01:43.553Z,36
2017-02-02T07:02:16.357Z,44
2017-02-02T07:02:49.082Z,44
2017-02-02T07:03:21.811Z,48
2017-02-02T07:03:54.536Z,52
2017-02-02T07:04:27.271Z,52
2017-02-02T07:05:00.001Z,56
2017-02-02T07:05:32.733Z,60
2017-02-02T07:06:05.466Z,64
2017-02-02T07:06:38.198Z,64
2017-02-02T07:07:10.932Z,68
2017-02-02T07:07:43.672Z,72
2017-02-02T07:08:16.409Z,76
2017-02-02T07:08:49.127Z,80
2017-02-02T07:09:21.859Z,84
2017-02-02T07:09:54.611Z,88
2017-02-02T07:10:27.343Z,92
2017-02-02T07:11:00.077Z,96
2017-02-02T07:11:32.808Z,100
2017-02-02T07:12:06.252Z,104
2017-02-02T07:12:38.989Z,112
2017-02-02T07:13:11.725Z,116
2017-02-02T07:13:44.449Z,120
2017-02-02T07:14:18.272Z,124
2017-02-02T07:14:50.989Z,132
2017-02-02T07:15:23.731Z,132
2017-02-02T07:15:56.502Z,140
2017-02-02T07:16:29.261Z,144
2017-02-02T07:17:01.991Z,148
2017-02-02T07:17:34.717Z,156
2017-02-02T07:18:07.438Z,160
2017-02-02T07:18:40.161Z,164
2017-02-02T07:19:12.888Z,168
2017-02-02T07:19:45.619Z,172
2017-02-02T07:20:18.351Z,180
2017-02-02T07:20:51.075Z,184
2017-02-02T07:21:23.806Z,188
2017-02-02T07:21:56.532Z,196
2017-02-02T07:22:29.271Z,200
2017-02-02T07:23:02.019Z,204
2017-02-02T07:23:34.747Z,208
2017-02-02T07:24:07.473Z,216
2017-02-02T07:24:40.193Z,216
2017-02-02T07:25:12.935Z,224
2017-02-02T07:25:45.678Z,228
2017-02-02T07:26:18.444Z,232
2017-02-02T07:26:51.192Z,240
2017-02-02T07:27:23.935Z,244
2017-02-02T07:27:56.700Z,252
2017-02-02T07:28:29.545Z,252
2017-02-02T07:29:02.288Z,256
2017-02-02T07:29:35.029Z,264
2017-02-02T07:30:07.767Z,264
2017-02-02T07:30:40.508Z,272
2017-02-02T07:31:13.247Z,276
2017-02-02T07:31:45.980Z,280
2017-02-02T07:32:18.720Z,288
2017-02-02T07:32:51.443Z,296
2017-02-02T07:33:24.162Z,304
2017-02-02T07:33:56.888Z,312
2017-02-02T07:34:29.640Z,320
2017-02-02T07:35:02.392Z,328
2017-02-02T07:35:35.119Z,336
2017-02-02T07:36:07.844Z,340
2017-02-02T07:36:40.607Z,348
2017-02-02T07:37:14.156Z,360
2017-02-02T07:37:46.934Z,364
2017-02-02T07:38:19.679Z,372
2017-02-02T07:38:52.417Z,372
2017-02-02T07:39:25.231Z,380
2017-02-02T07:39:58.036Z,388
2017-02-02T07:40:30.762Z,392
2017-02-02T07:41:03.478Z,396
2017-02-02T07:41:37.739Z,404
2017-02-02T07:42:10.487Z,408
2017-02-02T07:42:43.216Z,416
2017-02-02T07:43:21.676Z,420
2017-02-02T07:44:00.180Z,428
2017-02-02T07:44:35.401Z,428
2017-02-02T07:45:08.142Z,436
2017-02-02T07:45:40.882Z,436
2017-02-02T07:46:13.616Z,444
2017-02-02T07:46:46.351Z,444
2017-02-02T07:47:19.090Z,448
2017-02-02T07:47:51.826Z,448
2017-02-02T07:48:24.564Z,456
2017-02-02T07:48:57.302Z,460
2017-02-02T07:49:30.039Z,472
2017-02-02T07:50:03.620Z,480
2017-02-02T07:50:59.554Z,492
2017-02-02T07:51:33.434Z,500
2017-02-02T07:52:06.151Z,508
2017-02-02T07:52:38.872Z,508
2017-02-02T07:53:11.604Z,508
2017-02-02T07:53:44.337Z,504
2017-02-02T07:54:17.075Z,500
2017-02-02T07:54:49.797Z,500
2017-02-02T07:55:22.514Z,500
2017-02-02T07:55:55.242Z,504
2017-02-02T07:56:27.965Z,508
2017-02-02T07:57:00.701Z,520
2017-02-02T07:57:33.449Z,528
2017-02-02T07:58:06.180Z,544
2017-02-02T07:58:38.921Z,556
2017-02-02T07:59:11.659Z,568
2017-02-02T07:59:44.381Z,572
2017-02-02T08:00:17.123Z,584
2017-02-02T08:00:49.884Z,588